sensor_id;sensor_type;location;lat;lon;timestamp;pressure;altitude;pressure_sealevel;temperature
81885;BMP280;71340;55.154;30.266;2023-08-07T00:00:07;98503.47;;;24.69
81885;BMP280;71340;55.154;30.266;2023-08-07T00:02:35;98500.63;;;24.58
81885;BMP280;71340;55.154;30.266;2023-08-07T00:05:01;98509.88;;;24.57
81885;BMP280;71340;55.154;30.266;2023-08-07T00:07:26;98502.81;;;24.60
81885;BMP280;71340;55.154;30.266;2023-08-07T00:09:52;98503.00;;;24.56
81885;BMP280;71340;55.154;30.266;2023-08-07T00:12:17;98494.72;;;24.54
81885;BMP280;71340;55.154;30.266;2023-08-07T00:14:42;98486.09;;;24.50
81885;BMP280;71340;55.154;30.266;2023-08-07T00:17:08;98487.31;;;24.49
81885;BMP280;71340;55.154;30.266;2023-08-07T00:19:34;98501.44;;;24.50
81885;BMP280;71340;55.154;30.266;2023-08-07T00:21:59;98491.47;;;24.50
81885;BMP280;71340;55.154;30.266;2023-08-07T00:24:24;98486.03;;;24.45
81885;BMP280;71340;55.154;30.266;2023-08-07T00:26:50;98486.75;;;24.45
81885;BMP280;71340;55.154;30.266;2023-08-07T00:29:15;98487.84;;;24.39
81885;BMP280;71340;55.154;30.266;2023-08-07T00:31:40;98490.06;;;24.26
81885;BMP280;71340;55.154;30.266;2023-08-07T00:34:06;98498.13;;;24.26
81885;BMP280;71340;55.154;30.266;2023-08-07T00:36:31;98490.00;;;24.20
81885;BMP280;71340;55.154;30.266;2023-08-07T00:39:00;98492.09;;;24.16
81885;BMP280;71340;55.154;30.266;2023-08-07T00:41:25;98488.72;;;24.07
81885;BMP280;71340;55.154;30.266;2023-08-07T00:43:51;98481.44;;;24.07
81885;BMP280;71340;55.154;30.266;2023-08-07T00:46:16;98484.97;;;23.99
81885;BMP280;71340;55.154;30.266;2023-08-07T00:48:41;98480.63;;;24.01
81885;BMP280;71340;55.154;30.266;2023-08-07T00:51:08;98477.84;;;23.96
81885;BMP280;71340;55.154;30.266;2023-08-07T00:53:37;98481.31;;;23.87
81885;BMP280;71340;55.154;30.266;2023-08-07T00:56:03;98473.94;;;23.82
81885;BMP280;71340;55.154;30.266;2023-08-07T00:58:28;98478.38;;;23.85
81885;BMP280;71340;55.154;30.266;2023-08-07T01:00:54;98470.41;;;23.76
81885;BMP280;71340;55.154;30.266;2023-08-07T01:03:20;98473.09;;;23.76
81885;BMP280;71340;55.154;30.266;2023-08-07T01:05:45;98481.88;;;23.77
81885;BMP280;71340;55.154;30.266;2023-08-07T01:08:10;98470.13;;;23.74
81885;BMP280;71340;55.154;30.266;2023-08-07T01:13:18;98453.84;;;23.63
81885;BMP280;71340;55.154;30.266;2023-08-07T01:15:46;98441.97;;;23.64
81885;BMP280;71340;55.154;30.266;2023-08-07T01:18:14;98450.66;;;23.74
81885;BMP280;71340;55.154;30.266;2023-08-07T01:20:40;98450.09;;;23.70
81885;BMP280;71340;55.154;30.266;2023-08-07T01:23:05;98450.72;;;23.64
81885;BMP280;71340;55.154;30.266;2023-08-07T01:25:31;98450.00;;;23.64
81885;BMP280;71340;55.154;30.266;2023-08-07T01:28:07;98443.38;;;23.50
81885;BMP280;71340;55.154;30.266;2023-08-07T01:30:38;98439.78;;;23.53
81885;BMP280;71340;55.154;30.266;2023-08-07T01:33:24;98443.19;;;23.54
81885;BMP280;71340;55.154;30.266;2023-08-07T01:35:55;98447.09;;;23.53
81885;BMP280;71340;55.154;30.266;2023-08-07T01:38:24;98426.19;;;23.42
81885;BMP280;71340;55.154;30.266;2023-08-07T01:40:51;98433.25;;;23.54
81885;BMP280;71340;55.154;30.266;2023-08-07T01:43:18;98432.97;;;23.52
81885;BMP280;71340;55.154;30.266;2023-08-07T01:45:44;98432.41;;;23.48
81885;BMP280;71340;55.154;30.266;2023-08-07T01:48:10;98428.25;;;23.47
81885;BMP280;71340;55.154;30.266;2023-08-07T01:50:38;98433.47;;;23.42
81885;BMP280;71340;55.154;30.266;2023-08-07T01:53:03;98433.19;;;23.40
81885;BMP280;71340;55.154;30.266;2023-08-07T01:55:29;98426.06;;;23.37
81885;BMP280;71340;55.154;30.266;2023-08-07T01:57:54;98432.19;;;23.37
81885;BMP280;71340;55.154;30.266;2023-08-07T02:00:20;98422.22;;;23.38
81885;BMP280;71340;55.154;30.266;2023-08-07T02:02:45;98425.22;;;23.31
81885;BMP280;71340;55.154;30.266;2023-08-07T02:05:12;98421.09;;;23.30
81885;BMP280;71340;55.154;30.266;2023-08-07T02:07:38;98424.69;;;23.27
81885;BMP280;71340;55.154;30.266;2023-08-07T02:10:03;98421.50;;;23.28
81885;BMP280;71340;55.154;30.266;2023-08-07T02:12:29;98418.13;;;23.28
81885;BMP280;71340;55.154;30.266;2023-08-07T02:14:57;98424.47;;;23.30
81885;BMP280;71340;55.154;30.266;2023-08-07T02:17:24;98416.00;;;23.32
81885;BMP280;71340;55.154;30.266;2023-08-07T02:19:50;98414.53;;;23.31
81885;BMP280;71340;55.154;30.266;2023-08-07T02:22:15;98407.72;;;23.30
81885;BMP280;71340;55.154;30.266;2023-08-07T02:24:41;98411.09;;;23.30
81885;BMP280;71340;55.154;30.266;2023-08-07T02:27:06;98407.88;;;23.26
81885;BMP280;71340;55.154;30.266;2023-08-07T02:29:31;98401.78;;;23.26
81885;BMP280;71340;55.154;30.266;2023-08-07T02:31:59;98398.84;;;23.24
81885;BMP280;71340;55.154;30.266;2023-08-07T02:34:25;98391.72;;;23.21
81885;BMP280;71340;55.154;30.266;2023-08-07T02:36:50;98407.03;;;23.20
81885;BMP280;71340;55.154;30.266;2023-08-07T02:39:16;98397.94;;;23.27
81885;BMP280;71340;55.154;30.266;2023-08-07T02:41:41;98402.69;;;23.23
81885;BMP280;71340;55.154;30.266;2023-08-07T02:44:07;98398.09;;;23.23
81885;BMP280;71340;55.154;30.266;2023-08-07T02:46:32;98406.56;;;23.22
81885;BMP280;71340;55.154;30.266;2023-08-07T02:48:59;98405.63;;;23.25
81885;BMP280;71340;55.154;30.266;2023-08-07T02:51:25;98391.25;;;23.22
81885;BMP280;71340;55.154;30.266;2023-08-07T02:53:50;98400.28;;;23.25
81885;BMP280;71340;55.154;30.266;2023-08-07T02:56:15;98390.34;;;23.25
81885;BMP280;71340;55.154;30.266;2023-08-07T02:58:41;98386.75;;;23.28
81885;BMP280;71340;55.154;30.266;2023-08-07T03:01:06;98378.16;;;23.24
81885;BMP280;71340;55.154;30.266;2023-08-07T03:03:32;98394.34;;;23.30
81885;BMP280;71340;55.154;30.266;2023-08-07T03:05:57;98388.53;;;23.31
81885;BMP280;71340;55.154;30.266;2023-08-07T03:08:23;98376.91;;;23.34
81885;BMP280;71340;55.154;30.266;2023-08-07T03:10:52;98377.84;;;23.31
81885;BMP280;71340;55.154;30.266;2023-08-07T03:13:18;98393.22;;;23.36
81885;BMP280;71340;55.154;30.266;2023-08-07T03:15:43;98388.63;;;23.37
81885;BMP280;71340;55.154;30.266;2023-08-07T03:18:09;98376.00;;;23.37
81885;BMP280;71340;55.154;30.266;2023-08-07T03:20:36;98383.19;;;23.31
81885;BMP280;71340;55.154;30.266;2023-08-07T03:23:02;98377.94;;;23.37
81885;BMP280;71340;55.154;30.266;2023-08-07T03:25:27;98378.78;;;23.43
81885;BMP280;71340;55.154;30.266;2023-08-07T03:27:52;98383.50;;;23.48
81885;BMP280;71340;55.154;30.266;2023-08-07T03:30:18;98378.13;;;23.48
81885;BMP280;71340;55.154;30.266;2023-08-07T03:32:43;98384.31;;;23.54
81885;BMP280;71340;55.154;30.266;2023-08-07T03:35:08;98381.41;;;23.52
81885;BMP280;71340;55.154;30.266;2023-08-07T03:37:34;98376.03;;;23.52
81885;BMP280;71340;55.154;30.266;2023-08-07T03:39:59;98367.53;;;23.53
81885;BMP280;71340;55.154;30.266;2023-08-07T03:42:24;98366.13;;;23.67
81885;BMP280;71340;55.154;30.266;2023-08-07T03:44:50;98367.03;;;23.64
81885;BMP280;71340;55.154;30.266;2023-08-07T03:47:15;98356.16;;;23.68
81885;BMP280;71340;55.154;30.266;2023-08-07T03:49:40;98353.16;;;23.65
81885;BMP280;71340;55.154;30.266;2023-08-07T03:52:06;98360.09;;;23.72
81885;BMP280;71340;55.154;30.266;2023-08-07T03:54:31;98352.81;;;23.73
81885;BMP280;71340;55.154;30.266;2023-08-07T03:56:57;98346.91;;;23.83
81885;BMP280;71340;55.154;30.266;2023-08-07T03:59:23;98337.50;;;23.88
81885;BMP280;71340;55.154;30.266;2023-08-07T04:01:48;98337.88;;;23.95
81885;BMP280;71340;55.154;30.266;2023-08-07T04:04:13;98344.06;;;24.01
81885;BMP280;71340;55.154;30.266;2023-08-07T04:06:39;98348.47;;;24.04
81885;BMP280;71340;55.154;30.266;2023-08-07T04:09:04;98338.34;;;24.08
81885;BMP280;71340;55.154;30.266;2023-08-07T04:11:30;98340.94;;;24.17
81885;BMP280;71340;55.154;30.266;2023-08-07T04:13:55;98334.53;;;24.29
81885;BMP280;71340;55.154;30.266;2023-08-07T04:16:20;98328.34;;;24.23
81885;BMP280;71340;55.154;30.266;2023-08-07T04:18:47;98325.09;;;24.34
81885;BMP280;71340;55.154;30.266;2023-08-07T04:21:12;98319.00;;;24.33
81885;BMP280;71340;55.154;30.266;2023-08-07T04:23:37;98333.56;;;24.47
81885;BMP280;71340;55.154;30.266;2023-08-07T04:26:03;98326.25;;;24.47
81885;BMP280;71340;55.154;30.266;2023-08-07T04:28:29;98330.28;;;24.57
81885;BMP280;71340;55.154;30.266;2023-08-07T04:30:54;98318.63;;;24.60
81885;BMP280;71340;55.154;30.266;2023-08-07T04:33:20;98324.53;;;24.64
81885;BMP280;71340;55.154;30.266;2023-08-07T04:35:46;98323.88;;;24.69
81885;BMP280;71340;55.154;30.266;2023-08-07T04:38:13;98317.28;;;24.70
81885;BMP280;71340;55.154;30.266;2023-08-07T04:40:46;98312.44;;;24.69
81885;BMP280;71340;55.154;30.266;2023-08-07T04:43:15;98316.56;;;24.90
81885;BMP280;71340;55.154;30.266;2023-08-07T04:45:41;98309.28;;;24.90
81885;BMP280;71340;55.154;30.266;2023-08-07T04:48:07;98312.72;;;24.96
81885;BMP280;71340;55.154;30.266;2023-08-07T04:50:33;98297.72;;;25.04
81885;BMP280;71340;55.154;30.266;2023-08-07T04:52:58;98298.69;;;25.01
81885;BMP280;71340;55.154;30.266;2023-08-07T04:55:24;98291.50;;;25.13
81885;BMP280;71340;55.154;30.266;2023-08-07T04:57:50;98287.38;;;25.17
81885;BMP280;71340;55.154;30.266;2023-08-07T05:00:19;98286.38;;;25.15
81885;BMP280;71340;55.154;30.266;2023-08-07T05:02:44;98279.38;;;25.23
81885;BMP280;71340;55.154;30.266;2023-08-07T05:05:10;98268.66;;;25.23
81885;BMP280;71340;55.154;30.266;2023-08-07T05:07:35;98275.78;;;25.32
81885;BMP280;71340;55.154;30.266;2023-08-07T05:10:02;98272.94;;;25.41
81885;BMP280;71340;55.154;30.266;2023-08-07T05:12:27;98267.91;;;25.48
81885;BMP280;71340;55.154;30.266;2023-08-07T05:14:53;98261.38;;;25.55
81885;BMP280;71340;55.154;30.266;2023-08-07T05:17:18;98253.34;;;25.55
81885;BMP280;71340;55.154;30.266;2023-08-07T05:19:44;98263.38;;;25.60
81885;BMP280;71340;55.154;30.266;2023-08-07T05:22:09;98235.84;;;25.70
81885;BMP280;71340;55.154;30.266;2023-08-07T05:24:34;98242.28;;;25.78
81885;BMP280;71340;55.154;30.266;2023-08-07T05:27:05;98231.06;;;25.80
81885;BMP280;71340;55.154;30.266;2023-08-07T05:29:31;98223.56;;;25.89
81885;BMP280;71340;55.154;30.266;2023-08-07T05:31:56;98218.97;;;25.95
81885;BMP280;71340;55.154;30.266;2023-08-07T05:34:21;98207.69;;;25.86
81885;BMP280;71340;55.154;30.266;2023-08-07T05:36:47;98208.22;;;25.95
81885;BMP280;71340;55.154;30.266;2023-08-07T05:39:12;98201.91;;;26.04
81885;BMP280;71340;55.154;30.266;2023-08-07T05:41:38;98199.97;;;26.10
81885;BMP280;71340;55.154;30.266;2023-08-07T05:44:04;98208.53;;;26.14
81885;BMP280;71340;55.154;30.266;2023-08-07T05:46:30;98192.47;;;26.25
81885;BMP280;71340;55.154;30.266;2023-08-07T05:48:56;98191.75;;;26.24
81885;BMP280;71340;55.154;30.266;2023-08-07T05:51:21;98184.66;;;26.27
81885;BMP280;71340;55.154;30.266;2023-08-07T05:53:46;98169.81;;;26.42
81885;BMP280;71340;55.154;30.266;2023-08-07T05:56:12;98180.81;;;26.39
81885;BMP280;71340;55.154;30.266;2023-08-07T05:58:37;98171.56;;;26.51
81885;BMP280;71340;55.154;30.266;2023-08-07T06:01:03;98172.78;;;26.55
81885;BMP280;71340;55.154;30.266;2023-08-07T06:03:28;98173.31;;;26.59
81885;BMP280;71340;55.154;30.266;2023-08-07T06:05:53;98165.47;;;26.67
81885;BMP280;71340;55.154;30.266;2023-08-07T06:08:19;98165.00;;;26.74
81885;BMP280;71340;55.154;30.266;2023-08-07T06:10:44;98164.28;;;26.79
81885;BMP280;71340;55.154;30.266;2023-08-07T06:13:10;98156.22;;;26.84
81885;BMP280;71340;55.154;30.266;2023-08-07T06:15:35;98148.63;;;26.83
81885;BMP280;71340;55.154;30.266;2023-08-07T06:18:00;98144.72;;;26.95
81885;BMP280;71340;55.154;30.266;2023-08-07T06:20:26;98137.38;;;27.01
81885;BMP280;71340;55.154;30.266;2023-08-07T06:22:51;98139.34;;;27.12
81885;BMP280;71340;55.154;30.266;2023-08-07T06:25:17;98135.16;;;27.22
81885;BMP280;71340;55.154;30.266;2023-08-07T06:27:44;98137.09;;;27.21
81885;BMP280;71340;55.154;30.266;2023-08-07T06:30:10;98124.63;;;27.35
81885;BMP280;71340;55.154;30.266;2023-08-07T06:32:36;98134.41;;;27.43
81885;BMP280;71340;55.154;30.266;2023-08-07T06:35:03;98138.06;;;27.51
81885;BMP280;71340;55.154;30.266;2023-08-07T06:37:29;98132.16;;;27.58
81885;BMP280;71340;55.154;30.266;2023-08-07T06:39:54;98119.94;;;27.57
81885;BMP280;71340;55.154;30.266;2023-08-07T06:42:20;98122.34;;;27.66
81885;BMP280;71340;55.154;30.266;2023-08-07T06:44:45;98116.41;;;27.79
81885;BMP280;71340;55.154;30.266;2023-08-07T06:47:10;98101.22;;;27.87
81885;BMP280;71340;55.154;30.266;2023-08-07T06:49:36;98104.91;;;27.84
81885;BMP280;71340;55.154;30.266;2023-08-07T06:52:01;98104.66;;;27.87
81885;BMP280;71340;55.154;30.266;2023-08-07T06:54:27;98107.03;;;28.02
81885;BMP280;71340;55.154;30.266;2023-08-07T06:56:53;98104.28;;;28.07
81885;BMP280;71340;55.154;30.266;2023-08-07T06:59:18;98107.28;;;27.98
81885;BMP280;71340;55.154;30.266;2023-08-07T07:01:43;98099.66;;;28.02
81885;BMP280;71340;55.154;30.266;2023-08-07T07:04:08;98094.38;;;28.26
81885;BMP280;71340;55.154;30.266;2023-08-07T07:06:34;98080.13;;;28.31
81885;BMP280;71340;55.154;30.266;2023-08-07T07:08:59;98085.22;;;28.40
81885;BMP280;71340;55.154;30.266;2023-08-07T07:11:25;98073.63;;;28.45
81885;BMP280;71340;55.154;30.266;2023-08-07T07:13:51;98074.47;;;28.64
81885;BMP280;71340;55.154;30.266;2023-08-07T07:16:18;98070.91;;;28.51
81885;BMP280;71340;55.154;30.266;2023-08-07T07:18:43;98069.63;;;28.57
81885;BMP280;71340;55.154;30.266;2023-08-07T07:21:08;98071.38;;;28.55
81885;BMP280;71340;55.154;30.266;2023-08-07T07:23:34;98057.19;;;28.49
81885;BMP280;71340;55.154;30.266;2023-08-07T07:25:59;98048.59;;;28.50
81885;BMP280;71340;55.154;30.266;2023-08-07T07:28:24;98045.03;;;28.66
81885;BMP280;71340;55.154;30.266;2023-08-07T07:30:50;98049.59;;;28.77
81885;BMP280;71340;55.154;30.266;2023-08-07T07:33:16;98041.44;;;28.82
81885;BMP280;71340;55.154;30.266;2023-08-07T07:35:41;98043.47;;;29.01
81885;BMP280;71340;55.154;30.266;2023-08-07T07:38:07;98035.81;;;29.05
81885;BMP280;71340;55.154;30.266;2023-08-07T07:40:34;98027.59;;;29.16
81885;BMP280;71340;55.154;30.266;2023-08-07T07:42:59;98031.44;;;29.02
81885;BMP280;71340;55.154;30.266;2023-08-07T07:45:24;98026.72;;;28.83
81885;BMP280;71340;55.154;30.266;2023-08-07T07:47:50;98027.22;;;28.82
81885;BMP280;71340;55.154;30.266;2023-08-07T07:50:15;98029.63;;;29.10
81885;BMP280;71340;55.154;30.266;2023-08-07T07:52:41;98018.97;;;28.98
81885;BMP280;71340;55.154;30.266;2023-08-07T07:55:06;98019.22;;;29.38
81885;BMP280;71340;55.154;30.266;2023-08-07T07:57:34;98014.50;;;29.62
81885;BMP280;71340;55.154;30.266;2023-08-07T07:59:59;98015.06;;;29.74
81885;BMP280;71340;55.154;30.266;2023-08-07T08:02:26;98017.25;;;29.75
81885;BMP280;71340;55.154;30.266;2023-08-07T08:04:52;98007.44;;;29.91
81885;BMP280;71340;55.154;30.266;2023-08-07T08:07:18;97998.78;;;30.11
81885;BMP280;71340;55.154;30.266;2023-08-07T08:09:43;97991.09;;;30.15
81885;BMP280;71340;55.154;30.266;2023-08-07T08:12:09;97992.38;;;29.95
81885;BMP280;71340;55.154;30.266;2023-08-07T08:14:34;97974.53;;;29.74
81885;BMP280;71340;55.154;30.266;2023-08-07T08:17:00;97976.88;;;29.83
81885;BMP280;71340;55.154;30.266;2023-08-07T08:19:25;97983.25;;;29.98
81885;BMP280;71340;55.154;30.266;2023-08-07T08:21:50;97977.97;;;30.19
81885;BMP280;71340;55.154;30.266;2023-08-07T08:24:16;97971.34;;;30.20
81885;BMP280;71340;55.154;30.266;2023-08-07T08:26:41;97976.00;;;30.19
81885;BMP280;71340;55.154;30.266;2023-08-07T08:29:06;97970.53;;;30.38
81885;BMP280;71340;55.154;30.266;2023-08-07T08:31:33;97958.13;;;30.29
81885;BMP280;71340;55.154;30.266;2023-08-07T08:33:59;97951.59;;;30.51
81885;BMP280;71340;55.154;30.266;2023-08-07T08:36:24;97949.13;;;30.53
81885;BMP280;71340;55.154;30.266;2023-08-07T08:38:50;97931.94;;;30.37
81885;BMP280;71340;55.154;30.266;2023-08-07T08:41:17;97941.41;;;30.70
81885;BMP280;71340;55.154;30.266;2023-08-07T08:43:45;97937.56;;;30.78
81885;BMP280;71340;55.154;30.266;2023-08-07T08:46:11;97947.41;;;30.89
81885;BMP280;71340;55.154;30.266;2023-08-07T08:48:40;97932.44;;;30.75
81885;BMP280;71340;55.154;30.266;2023-08-07T08:51:08;97927.53;;;30.86
81885;BMP280;71340;55.154;30.266;2023-08-07T08:53:34;97937.03;;;30.67
81885;BMP280;71340;55.154;30.266;2023-08-07T08:56:00;97916.44;;;30.64
81885;BMP280;71340;55.154;30.266;2023-08-07T08:58:27;97921.38;;;30.86
81885;BMP280;71340;55.154;30.266;2023-08-07T09:00:53;97894.94;;;30.92
81885;BMP280;71340;55.154;30.266;2023-08-07T09:03:18;97923.34;;;30.98
81885;BMP280;71340;55.154;30.266;2023-08-07T09:05:45;97900.97;;;30.98
81885;BMP280;71340;55.154;30.266;2023-08-07T09:08:12;97909.00;;;30.90
81885;BMP280;71340;55.154;30.266;2023-08-07T09:10:37;97907.28;;;31.13
81885;BMP280;71340;55.154;30.266;2023-08-07T09:13:04;97907.56;;;31.10
81885;BMP280;71340;55.154;30.266;2023-08-07T09:15:35;97906.22;;;31.16
81885;BMP280;71340;55.154;30.266;2023-08-07T09:18:03;97909.25;;;31.13
81885;BMP280;71340;55.154;30.266;2023-08-07T09:20:32;97908.19;;;31.16
81885;BMP280;71340;55.154;30.266;2023-08-07T09:22:59;97906.06;;;31.35
81885;BMP280;71340;55.154;30.266;2023-08-07T09:25:29;97902.06;;;31.36
81885;BMP280;71340;55.154;30.266;2023-08-07T09:27:56;97897.09;;;31.27
81885;BMP280;71340;55.154;30.266;2023-08-07T09:30:28;97887.59;;;31.33
81885;BMP280;71340;55.154;30.266;2023-08-07T09:32:56;97889.72;;;31.48
81885;BMP280;71340;55.154;30.266;2023-08-07T09:35:21;97886.88;;;31.33
81885;BMP280;71340;55.154;30.266;2023-08-07T09:37:48;97887.66;;;31.41
81885;BMP280;71340;55.154;30.266;2023-08-07T09:40:13;97887.47;;;31.59
81885;BMP280;71340;55.154;30.266;2023-08-07T09:42:41;97896.53;;;31.62
81885;BMP280;71340;55.154;30.266;2023-08-07T09:45:22;97878.47;;;31.44
81885;BMP280;71340;55.154;30.266;2023-08-07T09:48:05;97885.50;;;31.88
81885;BMP280;71340;55.154;30.266;2023-08-07T09:50:33;97904.69;;;32.18
81885;BMP280;71340;55.154;30.266;2023-08-07T09:52:59;97892.09;;;32.28
81885;BMP280;71340;55.154;30.266;2023-08-07T09:55:25;97884.91;;;32.38
81885;BMP280;71340;55.154;30.266;2023-08-07T09:57:51;97886.13;;;32.37
81885;BMP280;71340;55.154;30.266;2023-08-07T10:00:17;97890.16;;;32.44
81885;BMP280;71340;55.154;30.266;2023-08-07T10:02:46;97894.84;;;32.43
81885;BMP280;71340;55.154;30.266;2023-08-07T10:05:11;97880.53;;;32.35
81885;BMP280;71340;55.154;30.266;2023-08-07T10:07:38;97869.25;;;32.59
81885;BMP280;71340;55.154;30.266;2023-08-07T10:10:04;97873.03;;;32.64
81885;BMP280;71340;55.154;30.266;2023-08-07T10:12:31;97867.28;;;32.67
81885;BMP280;71340;55.154;30.266;2023-08-07T10:14:58;97859.31;;;32.62
81885;BMP280;71340;55.154;30.266;2023-08-07T10:17:24;97851.91;;;32.62
81885;BMP280;71340;55.154;30.266;2023-08-07T10:19:51;97843.91;;;32.64
81885;BMP280;71340;55.154;30.266;2023-08-07T10:22:17;97851.53;;;32.66
81885;BMP280;71340;55.154;30.266;2023-08-07T10:24:44;97846.34;;;32.90
81885;BMP280;71340;55.154;30.266;2023-08-07T10:27:14;97839.25;;;32.80
81885;BMP280;71340;55.154;30.266;2023-08-07T10:29:41;97829.88;;;32.88
81885;BMP280;71340;55.154;30.266;2023-08-07T10:32:07;97829.84;;;32.81
81885;BMP280;71340;55.154;30.266;2023-08-07T10:34:33;97835.81;;;32.87
81885;BMP280;71340;55.154;30.266;2023-08-07T10:36:59;97818.06;;;32.78
81885;BMP280;71340;55.154;30.266;2023-08-07T10:39:24;97818.81;;;32.94
81885;BMP280;71340;55.154;30.266;2023-08-07T10:41:53;97804.53;;;32.86
81885;BMP280;71340;55.154;30.266;2023-08-07T10:44:24;97808.31;;;33.20
81885;BMP280;71340;55.154;30.266;2023-08-07T10:46:56;97805.44;;;33.18
81885;BMP280;71340;55.154;30.266;2023-08-07T10:49:38;97788.56;;;33.35
81885;BMP280;71340;55.154;30.266;2023-08-07T10:52:14;97790.34;;;33.55
81885;BMP280;71340;55.154;30.266;2023-08-07T10:54:44;97790.38;;;33.25
81885;BMP280;71340;55.154;30.266;2023-08-07T10:57:11;97777.72;;;33.05
81885;BMP280;71340;55.154;30.266;2023-08-07T11:02:25;97779.16;;;33.28
81885;BMP280;71340;55.154;30.266;2023-08-07T11:04:52;97754.69;;;33.28
81885;BMP280;71340;55.154;30.266;2023-08-07T11:07:27;97747.66;;;33.18
81885;BMP280;71340;55.154;30.266;2023-08-07T11:09:54;97752.31;;;33.47
81885;BMP280;71340;55.154;30.266;2023-08-07T11:12:20;97744.75;;;33.23
81885;BMP280;71340;55.154;30.266;2023-08-07T11:14:46;97728.00;;;33.57
81885;BMP280;71340;55.154;30.266;2023-08-07T11:17:12;97734.03;;;33.87
81885;BMP280;71340;55.154;30.266;2023-08-07T11:19:38;97721.81;;;33.64
81885;BMP280;71340;55.154;30.266;2023-08-07T11:22:03;97719.47;;;33.60
81885;BMP280;71340;55.154;30.266;2023-08-07T11:24:29;97718.63;;;33.90
81885;BMP280;71340;55.154;30.266;2023-08-07T11:26:55;97727.09;;;34.01
81885;BMP280;71340;55.154;30.266;2023-08-07T11:29:22;97724.00;;;34.29
81885;BMP280;71340;55.154;30.266;2023-08-07T11:31:52;97727.50;;;34.22
81885;BMP280;71340;55.154;30.266;2023-08-07T11:34:18;97731.69;;;34.23
81885;BMP280;71340;55.154;30.266;2023-08-07T11:36:44;97741.19;;;34.07
81885;BMP280;71340;55.154;30.266;2023-08-07T11:39:11;97746.34;;;33.96
81885;BMP280;71340;55.154;30.266;2023-08-07T11:41:37;97736.88;;;34.04
81885;BMP280;71340;55.154;30.266;2023-08-07T11:44:03;97737.59;;;34.05
81885;BMP280;71340;55.154;30.266;2023-08-07T11:46:28;97729.81;;;34.01
81885;BMP280;71340;55.154;30.266;2023-08-07T11:48:54;97735.34;;;34.18
81885;BMP280;71340;55.154;30.266;2023-08-07T11:51:20;97731.84;;;34.25
81885;BMP280;71340;55.154;30.266;2023-08-07T11:53:46;97732.50;;;34.41
81885;BMP280;71340;55.154;30.266;2023-08-07T11:56:13;97716.78;;;34.24
81885;BMP280;71340;55.154;30.266;2023-08-07T11:58:47;97709.94;;;34.48
81885;BMP280;71340;55.154;30.266;2023-08-07T12:01:23;97707.50;;;34.76
81885;BMP280;71340;55.154;30.266;2023-08-07T12:03:54;97705.13;;;34.80
81885;BMP280;71340;55.154;30.266;2023-08-07T12:06:20;97705.88;;;34.73
81885;BMP280;71340;55.154;30.266;2023-08-07T12:08:48;97708.13;;;35.09
81885;BMP280;71340;55.154;30.266;2023-08-07T12:11:14;97694.50;;;34.92
81885;BMP280;71340;55.154;30.266;2023-08-07T12:13:44;97696.34;;;35.06
81885;BMP280;71340;55.154;30.266;2023-08-07T12:16:10;97690.00;;;35.21
81885;BMP280;71340;55.154;30.266;2023-08-07T12:18:43;97695.69;;;35.32
81885;BMP280;71340;55.154;30.266;2023-08-07T12:21:09;97700.38;;;35.66
81885;BMP280;71340;55.154;30.266;2023-08-07T12:23:35;97684.69;;;35.57
81885;BMP280;71340;55.154;30.266;2023-08-07T12:26:02;97687.34;;;35.47
81885;BMP280;71340;55.154;30.266;2023-08-07T12:28:27;97677.84;;;35.65
81885;BMP280;71340;55.154;30.266;2023-08-07T12:30:53;97670.06;;;35.88
81885;BMP280;71340;55.154;30.266;2023-08-07T12:33:19;97659.19;;;35.98
81885;BMP280;71340;55.154;30.266;2023-08-07T12:35:44;97666.22;;;36.46
81885;BMP280;71340;55.154;30.266;2023-08-07T12:38:10;97669.88;;;36.87
81885;BMP280;71340;55.154;30.266;2023-08-07T12:40:36;97657.34;;;36.74
81885;BMP280;71340;55.154;30.266;2023-08-07T12:43:05;97652.75;;;36.67
81885;BMP280;71340;55.154;30.266;2023-08-07T12:45:31;97656.22;;;36.78
81885;BMP280;71340;55.154;30.266;2023-08-07T12:47:57;97638.94;;;37.04
81885;BMP280;71340;55.154;30.266;2023-08-07T12:50:23;97630.03;;;37.13
81885;BMP280;71340;55.154;30.266;2023-08-07T12:52:48;97612.69;;;37.39
81885;BMP280;71340;55.154;30.266;2023-08-07T12:55:13;97616.84;;;37.80
81885;BMP280;71340;55.154;30.266;2023-08-07T12:57:42;97612.34;;;37.54
81885;BMP280;71340;55.154;30.266;2023-08-07T13:00:09;97601.38;;;37.54
81885;BMP280;71340;55.154;30.266;2023-08-07T13:02:39;97611.00;;;37.64
81885;BMP280;71340;55.154;30.266;2023-08-07T13:05:05;97591.88;;;37.15
81885;BMP280;71340;55.154;30.266;2023-08-07T13:07:30;97585.53;;;37.62
81885;BMP280;71340;55.154;30.266;2023-08-07T13:09:55;97574.50;;;37.81
81885;BMP280;71340;55.154;30.266;2023-08-07T13:12:22;97585.41;;;37.90
81885;BMP280;71340;55.154;30.266;2023-08-07T13:14:47;97562.25;;;37.82
81885;BMP280;71340;55.154;30.266;2023-08-07T13:17:13;97570.06;;;38.39
81885;BMP280;71340;55.154;30.266;2023-08-07T13:19:38;97564.94;;;37.91
81885;BMP280;71340;55.154;30.266;2023-08-07T13:22:04;97559.88;;;37.27
81885;BMP280;71340;55.154;30.266;2023-08-07T13:24:29;97562.56;;;37.06
81885;BMP280;71340;55.154;30.266;2023-08-07T13:26:55;97568.56;;;37.14
81885;BMP280;71340;55.154;30.266;2023-08-07T13:29:20;97562.22;;;37.61
81885;BMP280;71340;55.154;30.266;2023-08-07T13:31:46;97564.44;;;38.04
81885;BMP280;71340;55.154;30.266;2023-08-07T13:34:13;97558.41;;;38.17
81885;BMP280;71340;55.154;30.266;2023-08-07T13:36:38;97544.84;;;38.73
81885;BMP280;71340;55.154;30.266;2023-08-07T13:39:05;97532.53;;;38.09
81885;BMP280;71340;55.154;30.266;2023-08-07T13:41:31;97510.66;;;37.67
81885;BMP280;71340;55.154;30.266;2023-08-07T13:43:57;97501.94;;;37.49
81885;BMP280;71340;55.154;30.266;2023-08-07T13:46:23;97509.00;;;37.43
81885;BMP280;71340;55.154;30.266;2023-08-07T13:48:48;97505.94;;;37.17
81885;BMP280;71340;55.154;30.266;2023-08-07T13:51:14;97501.16;;;36.88
81885;BMP280;71340;55.154;30.266;2023-08-07T13:53:39;97490.66;;;35.79
81885;BMP280;71340;55.154;30.266;2023-08-07T13:56:05;97496.59;;;35.49